Bethesda, Tennessee
Current Conditions -  °F | °C
As of 6:53 AM on Sunday 21 Dec 2014 (Local Time) from KBNA Reporting Station
Light Fog Light Fog  
Wind Chill: 26°   Ceiling: Unl
Heat Index: 26°   Visibility: 4mi
Dew Point: 23°   Wind: 0mph
Humidity: 88%   Direction: NA
Pressure: 30.26"   Gusts: NA
Location:  35.7808°N, 86.7221°W
Report Text: KBNA 211253Z 00000KT 4SM BCFG BR FEW150 M03/M05 A3026 RMK AO2 SLP251 T10331050
Loading
Personal Weather Stations






























Interactive Weather Map New forecast layout! Learn more

10-Day Weather Forecast

Advertisements
Track Severe Weather on mobile